Home PIREPS Pireps

Flight SLR6185

  • Submitted By: Tran Tri Nam
  • Departure Airport: Bruxelles National (EBBR)
  • Arrival Airport: Ibiza / Es Codola (LEIB)
  • Aircraft: B737-800 (OO-SLR)
  • Flight Time: 02.35
  • Date Submitted: 22/02/2017
  • Status: Accepted
Flight Details
Gross Revenue:
(130 load / € 0.00 per unit
€ 0.00
Fuel Cost:
(5363 fuel used @ 5.1 / unit)
€ 27,351.30

Additional Log Information:

View Log

Aircraft Used in flight is PMDG 737-800NGX Brussels Airlines Winglets
15:18 Brakes are On
15:31 Brakes are Released
15:33 Brakes are On
15:35 Brakes are Released
15:39 Brakes are On
15:39 Brakes are Released
15:41 You Took off @ 150 Knots and Flaps at Position 3
Departure Weather
EBBR 221420Z 25023G33KT 9999 -RA BKN010 10/08 Q1008 TEMPO 4000 RArn
15:41 Landing Gear Up @ 157 Knots and 310 Feet
15:43 Below 10000 feet you are not allowed to go over 250 knots
15:45 Above FL100 you need to switch of the landing lights
17:49 Landing Gear Down @ 178 Knots and 1620 Feet
17:51 You Landed @ 124 Knots and with -500 Vertical Speed
Arrival Weather
LEIB 221630Z 07008KT CAVOK 15/08 Q1020 NOSIGrn
17:51 Paused
17:53 Unpaused
17:53 Paused
17:53 Unpaused
17:53 Paused
17:55 Unpaused
17:55 Paused
17:55 Unpaused
17:55 Brakes are On
17:58 Brussels Bel-Track1.0.1.2

Comments

Commenter Comment
Tran Tri Nam AIRAC1613

Route Map

Corporate About Us Our Team Vacancies Information Fleet Route Network Rules and Regulations Operations Flight Schedules Event Center Tours Partners IVAO Vatsim Acars dev FSCB

fb Users Online Belgium Marc Claus, Belgium Bert Verkest,
2 Pilot(s) and 104 Guest(s) Online
CMS by phpVMS - Design by Crazycreatives.com - Copyright © 2018 - Brussels Airlines Virtual